sensor_id;sensor_type;location;lat;lon;timestamp;temperature;humidity
39847;DHT22;25517;52.422;10.782;2022-10-31T00:02:04;15.40;99.90
39847;DHT22;25517;52.422;10.782;2022-10-31T00:04:29;15.30;99.90
39847;DHT22;25517;52.422;10.782;2022-10-31T00:06:55;15.30;99.90
39847;DHT22;25517;52.422;10.782;2022-10-31T00:09:20;15.30;99.90
39847;DHT22;25517;52.422;10.782;2022-10-31T00:11:46;15.30;99.90
39847;DHT22;25517;52.422;10.782;2022-10-31T00:14:11;15.30;99.90
39847;DHT22;25517;52.422;10.782;2022-10-31T00:16:37;15.30;99.90
39847;DHT22;25517;52.422;10.782;2022-10-31T00:19:05;15.30;99.90
39847;DHT22;25517;52.422;10.782;2022-10-31T00:21:31;15.30;99.90
39847;DHT22;25517;52.422;10.782;2022-10-31T00:23:58;15.40;99.90
39847;DHT22;25517;52.422;10.782;2022-10-31T00:26:24;15.30;99.90
39847;DHT22;25517;52.422;10.782;2022-10-31T00:28:50;15.40;99.90
39847;DHT22;25517;52.422;10.782;2022-10-31T00:31:16;15.30;99.90
39847;DHT22;25517;52.422;10.782;2022-10-31T00:33:42;15.30;99.90
39847;DHT22;25517;52.422;10.782;2022-10-31T00:36:14;15.30;99.90
39847;DHT22;25517;52.422;10.782;2022-10-31T00:38:40;15.30;99.90
39847;DHT22;25517;52.422;10.782;2022-10-31T00:41:06;15.20;99.90
39847;DHT22;25517;52.422;10.782;2022-10-31T00:43:31;15.20;99.90
39847;DHT22;25517;52.422;10.782;2022-10-31T00:45:56;15.30;99.90
39847;DHT22;25517;52.422;10.782;2022-10-31T00:48:22;15.20;99.90
39847;DHT22;25517;52.422;10.782;2022-10-31T00:50:47;15.20;99.90
39847;DHT22;25517;52.422;10.782;2022-10-31T00:53:13;15.20;99.90
39847;DHT22;25517;52.422;10.782;2022-10-31T00:55:38;15.20;99.90
39847;DHT22;25517;52.422;10.782;2022-10-31T00:58:04;15.20;99.90
39847;DHT22;25517;52.422;10.782;2022-10-31T01:00:29;15.20;99.90
39847;DHT22;25517;52.422;10.782;2022-10-31T01:02:55;15.20;99.90
39847;DHT22;25517;52.422;10.782;2022-10-31T01:05:20;15.20;99.90
39847;DHT22;25517;52.422;10.782;2022-10-31T01:07:46;15.20;99.90
39847;DHT22;25517;52.422;10.782;2022-10-31T01:10:11;15.30;99.90
39847;DHT22;25517;52.422;10.782;2022-10-31T01:12:42;15.30;99.90
39847;DHT22;25517;52.422;10.782;2022-10-31T01:15:07;15.30;99.90
39847;DHT22;25517;52.422;10.782;2022-10-31T01:17:33;15.40;99.90
39847;DHT22;25517;52.422;10.782;2022-10-31T01:19:59;15.30;99.90
39847;DHT22;25517;52.422;10.782;2022-10-31T01:22:24;15.30;99.90
39847;DHT22;25517;52.422;10.782;2022-10-31T01:24:50;15.40;99.90
39847;DHT22;25517;52.422;10.782;2022-10-31T01:27:15;15.30;99.90
39847;DHT22;25517;52.422;10.782;2022-10-31T01:29:41;15.30;99.90
39847;DHT22;25517;52.422;10.782;2022-10-31T01:32:06;15.30;99.90
39847;DHT22;25517;52.422;10.782;2022-10-31T01:34:31;15.30;99.90
39847;DHT22;25517;52.422;10.782;2022-10-31T01:36:57;15.30;99.90
39847;DHT22;25517;52.422;10.782;2022-10-31T01:39:22;15.20;99.90
39847;DHT22;25517;52.422;10.782;2022-10-31T01:41:50;15.30;99.90
39847;DHT22;25517;52.422;10.782;2022-10-31T01:46:48;15.20;99.90
39847;DHT22;25517;52.422;10.782;2022-10-31T01:51:50;15.20;99.90
39847;DHT22;25517;52.422;10.782;2022-10-31T01:54:21;15.20;99.90
39847;DHT22;25517;52.422;10.782;2022-10-31T01:56:50;15.20;99.90
39847;DHT22;25517;52.422;10.782;2022-10-31T01:59:18;15.20;99.90
39847;DHT22;25517;52.422;10.782;2022-10-31T02:01:45;15.20;99.90
39847;DHT22;25517;52.422;10.782;2022-10-31T02:04:10;15.20;99.90
39847;DHT22;25517;52.422;10.782;2022-10-31T02:06:41;15.20;99.90
39847;DHT22;25517;52.422;10.782;2022-10-31T02:09:08;15.10;99.90
39847;DHT22;25517;52.422;10.782;2022-10-31T02:11:34;15.10;99.90
39847;DHT22;25517;52.422;10.782;2022-10-31T02:14:01;15.10;99.90
39847;DHT22;25517;52.422;10.782;2022-10-31T02:16:27;15.10;99.90
39847;DHT22;25517;52.422;10.782;2022-10-31T02:18:53;15.10;99.90
39847;DHT22;25517;52.422;10.782;2022-10-31T02:24:37;15.00;99.90
39847;DHT22;25517;52.422;10.782;2022-10-31T02:32:29;14.90;99.90
39847;DHT22;25517;52.422;10.782;2022-10-31T02:38:01;14.80;99.90
39847;DHT22;25517;52.422;10.782;2022-10-31T02:40:34;14.70;99.90
39847;DHT22;25517;52.422;10.782;2022-10-31T02:45:48;14.70;99.90
39847;DHT22;25517;52.422;10.782;2022-10-31T02:48:20;14.60;99.90
39847;DHT22;25517;52.422;10.782;2022-10-31T02:50:54;14.60;99.90
39847;DHT22;25517;52.422;10.782;2022-10-31T02:53:21;14.60;99.90
39847;DHT22;25517;52.422;10.782;2022-10-31T02:58:21;14.50;99.90
39847;DHT22;25517;52.422;10.782;2022-10-31T03:04:02;14.30;99.90
39847;DHT22;25517;52.422;10.782;2022-10-31T03:09:50;14.30;99.90
39847;DHT22;25517;52.422;10.782;2022-10-31T03:12:28;14.30;99.90
39847;DHT22;25517;52.422;10.782;2022-10-31T03:16:10;14.30;99.90
39847;DHT22;25517;52.422;10.782;2022-10-31T03:18:30;14.30;99.90
39847;DHT22;25517;52.422;10.782;2022-10-31T03:21:09;14.40;99.90
39847;DHT22;25517;52.422;10.782;2022-10-31T03:23:36;14.40;99.90
39847;DHT22;25517;52.422;10.782;2022-10-31T03:26:04;14.40;99.90
39847;DHT22;25517;52.422;10.782;2022-10-31T03:28:35;14.50;99.90
39847;DHT22;25517;52.422;10.782;2022-10-31T03:31:02;14.50;99.90
39847;DHT22;25517;52.422;10.782;2022-10-31T03:33:33;14.50;99.90
39847;DHT22;25517;52.422;10.782;2022-10-31T03:36:02;14.60;99.90
39847;DHT22;25517;52.422;10.782;2022-10-31T03:38:29;14.50;99.90
39847;DHT22;25517;52.422;10.782;2022-10-31T03:40:58;14.60;99.90
39847;DHT22;25517;52.422;10.782;2022-10-31T03:43:28;14.50;99.90
39847;DHT22;25517;52.422;10.782;2022-10-31T03:45:55;14.50;99.90
39847;DHT22;25517;52.422;10.782;2022-10-31T03:48:21;14.50;99.90
39847;DHT22;25517;52.422;10.782;2022-10-31T03:53:32;14.40;99.90
39847;DHT22;25517;52.422;10.782;2022-10-31T03:56:16;14.40;99.90
39847;DHT22;25517;52.422;10.782;2022-10-31T03:59:04;14.30;99.90
39847;DHT22;25517;52.422;10.782;2022-10-31T04:01:33;14.30;99.90
39847;DHT22;25517;52.422;10.782;2022-10-31T04:04:00;14.30;99.90
39847;DHT22;25517;52.422;10.782;2022-10-31T04:06:27;14.30;99.90
39847;DHT22;25517;52.422;10.782;2022-10-31T04:09:02;14.30;99.90
39847;DHT22;25517;52.422;10.782;2022-10-31T04:11:32;14.30;99.90
39847;DHT22;25517;52.422;10.782;2022-10-31T04:14:00;14.30;99.90
39847;DHT22;25517;52.422;10.782;2022-10-31T04:16:26;14.40;99.90
39847;DHT22;25517;52.422;10.782;2022-10-31T04:18:52;14.40;99.90
39847;DHT22;25517;52.422;10.782;2022-10-31T04:21:18;14.40;99.90
39847;DHT22;25517;52.422;10.782;2022-10-31T04:23:43;14.40;99.90
39847;DHT22;25517;52.422;10.782;2022-10-31T04:26:12;14.40;99.90
39847;DHT22;25517;52.422;10.782;2022-10-31T04:28:38;14.40;99.90
39847;DHT22;25517;52.422;10.782;2022-10-31T04:31:03;14.40;99.90
39847;DHT22;25517;52.422;10.782;2022-10-31T04:33:30;14.40;99.90
39847;DHT22;25517;52.422;10.782;2022-10-31T04:35:55;14.40;99.90
39847;DHT22;25517;52.422;10.782;2022-10-31T04:38:21;14.40;99.90
39847;DHT22;25517;52.422;10.782;2022-10-31T04:40:46;14.50;99.90
39847;DHT22;25517;52.422;10.782;2022-10-31T04:43:12;14.50;99.90
39847;DHT22;25517;52.422;10.782;2022-10-31T04:45:37;14.40;99.90
39847;DHT22;25517;52.422;10.782;2022-10-31T04:48:03;14.50;99.90
39847;DHT22;25517;52.422;10.782;2022-10-31T04:50:28;14.50;99.90
39847;DHT22;25517;52.422;10.782;2022-10-31T04:52:54;14.40;99.90
39847;DHT22;25517;52.422;10.782;2022-10-31T04:55:19;14.50;99.90
39847;DHT22;25517;52.422;10.782;2022-10-31T04:57:47;14.50;99.90
39847;DHT22;25517;52.422;10.782;2022-10-31T05:00:14;14.50;99.90
39847;DHT22;25517;52.422;10.782;2022-10-31T05:02:50;14.50;99.90
39847;DHT22;25517;52.422;10.782;2022-10-31T05:05:18;14.50;99.90
39847;DHT22;25517;52.422;10.782;2022-10-31T05:07:46;14.50;99.90
39847;DHT22;25517;52.422;10.782;2022-10-31T05:10:14;14.50;99.90
39847;DHT22;25517;52.422;10.782;2022-10-31T05:12:47;14.50;99.90
39847;DHT22;25517;52.422;10.782;2022-10-31T05:15:13;14.60;99.90
39847;DHT22;25517;52.422;10.782;2022-10-31T05:17:39;14.60;99.90
39847;DHT22;25517;52.422;10.782;2022-10-31T05:20:05;14.50;99.90
39847;DHT22;25517;52.422;10.782;2022-10-31T05:22:30;14.50;99.90
39847;DHT22;25517;52.422;10.782;2022-10-31T05:24:56;14.50;99.90
39847;DHT22;25517;52.422;10.782;2022-10-31T05:27:21;14.50;99.90
39847;DHT22;25517;52.422;10.782;2022-10-31T05:29:47;14.50;99.90
39847;DHT22;25517;52.422;10.782;2022-10-31T05:32:12;14.50;99.90
39847;DHT22;25517;52.422;10.782;2022-10-31T05:34:38;14.50;99.90
39847;DHT22;25517;52.422;10.782;2022-10-31T05:37:03;14.60;99.90
39847;DHT22;25517;52.422;10.782;2022-10-31T05:39:29;14.60;99.90
39847;DHT22;25517;52.422;10.782;2022-10-31T05:41:54;14.50;99.90
39847;DHT22;25517;52.422;10.782;2022-10-31T05:44:20;14.40;99.90
39847;DHT22;25517;52.422;10.782;2022-10-31T05:46:46;14.50;99.90
39847;DHT22;25517;52.422;10.782;2022-10-31T05:49:12;14.40;99.90
39847;DHT22;25517;52.422;10.782;2022-10-31T05:51:37;14.40;99.90
39847;DHT22;25517;52.422;10.782;2022-10-31T05:54:03;14.40;99.90
39847;DHT22;25517;52.422;10.782;2022-10-31T05:56:29;14.30;99.90
39847;DHT22;25517;52.422;10.782;2022-10-31T05:58:54;14.30;99.90
39847;DHT22;25517;52.422;10.782;2022-10-31T06:01:19;14.30;99.90
39847;DHT22;25517;52.422;10.782;2022-10-31T06:03:45;14.20;99.90
39847;DHT22;25517;52.422;10.782;2022-10-31T06:06:10;14.20;99.90
39847;DHT22;25517;52.422;10.782;2022-10-31T06:08:36;14.20;99.90
39847;DHT22;25517;52.422;10.782;2022-10-31T06:11:02;14.10;99.90
39847;DHT22;25517;52.422;10.782;2022-10-31T06:13:27;14.10;99.90
39847;DHT22;25517;52.422;10.782;2022-10-31T06:15:53;14.10;99.90
39847;DHT22;25517;52.422;10.782;2022-10-31T06:18:18;14.00;99.90
39847;DHT22;25517;52.422;10.782;2022-10-31T06:20:44;13.90;99.90
39847;DHT22;25517;52.422;10.782;2022-10-31T06:23:09;13.90;99.90
39847;DHT22;25517;52.422;10.782;2022-10-31T06:25:35;13.90;99.90
39847;DHT22;25517;52.422;10.782;2022-10-31T06:28:00;13.90;99.90
39847;DHT22;25517;52.422;10.782;2022-10-31T06:30:26;13.90;99.90
39847;DHT22;25517;52.422;10.782;2022-10-31T06:32:51;13.90;99.90
39847;DHT22;25517;52.422;10.782;2022-10-31T06:35:17;13.90;99.90
39847;DHT22;25517;52.422;10.782;2022-10-31T06:37:43;13.90;99.90
39847;DHT22;25517;52.422;10.782;2022-10-31T06:40:08;13.90;99.90
39847;DHT22;25517;52.422;10.782;2022-10-31T06:42:34;13.80;99.90
39847;DHT22;25517;52.422;10.782;2022-10-31T06:44:59;13.80;99.90
39847;DHT22;25517;52.422;10.782;2022-10-31T06:47:25;13.90;99.90
39847;DHT22;25517;52.422;10.782;2022-10-31T06:49:50;13.90;99.90
39847;DHT22;25517;52.422;10.782;2022-10-31T06:52:16;13.90;99.90
39847;DHT22;25517;52.422;10.782;2022-10-31T06:54:41;14.00;99.90
39847;DHT22;25517;52.422;10.782;2022-10-31T06:57:07;14.00;99.90
39847;DHT22;25517;52.422;10.782;2022-10-31T06:59:32;14.00;99.90
39847;DHT22;25517;52.422;10.782;2022-10-31T07:01:58;14.10;99.90
39847;DHT22;25517;52.422;10.782;2022-10-31T07:04:24;14.10;99.90
39847;DHT22;25517;52.422;10.782;2022-10-31T07:06:51;14.10;99.90
39847;DHT22;25517;52.422;10.782;2022-10-31T07:09:17;14.20;99.90
39847;DHT22;25517;52.422;10.782;2022-10-31T07:11:42;14.20;99.90
39847;DHT22;25517;52.422;10.782;2022-10-31T07:14:08;14.30;99.90
39847;DHT22;25517;52.422;10.782;2022-10-31T07:16:33;14.30;99.90
39847;DHT22;25517;52.422;10.782;2022-10-31T07:18:59;14.40;99.90
39847;DHT22;25517;52.422;10.782;2022-10-31T07:21:25;14.40;99.90
39847;DHT22;25517;52.422;10.782;2022-10-31T07:23:51;14.50;99.90
39847;DHT22;25517;52.422;10.782;2022-10-31T07:26:16;14.50;99.90
39847;DHT22;25517;52.422;10.782;2022-10-31T07:28:42;14.50;99.90
39847;DHT22;25517;52.422;10.782;2022-10-31T07:31:07;14.50;99.90
39847;DHT22;25517;52.422;10.782;2022-10-31T07:33:32;14.60;99.90
39847;DHT22;25517;52.422;10.782;2022-10-31T07:35:58;14.70;99.90
39847;DHT22;25517;52.422;10.782;2022-10-31T07:38:24;14.80;99.90
39847;DHT22;25517;52.422;10.782;2022-10-31T07:40:51;14.80;99.90
39847;DHT22;25517;52.422;10.782;2022-10-31T07:43:18;14.80;99.90
39847;DHT22;25517;52.422;10.782;2022-10-31T07:45:43;14.80;99.90
39847;DHT22;25517;52.422;10.782;2022-10-31T07:48:09;14.80;99.90
39847;DHT22;25517;52.422;10.782;2022-10-31T07:50:34;14.90;99.90
39847;DHT22;25517;52.422;10.782;2022-10-31T07:53:05;15.00;99.90
39847;DHT22;25517;52.422;10.782;2022-10-31T07:55:32;15.00;99.90
39847;DHT22;25517;52.422;10.782;2022-10-31T07:57:59;15.00;99.90
39847;DHT22;25517;52.422;10.782;2022-10-31T08:00:25;15.20;99.90
39847;DHT22;25517;52.422;10.782;2022-10-31T08:02:59;15.30;99.90
39847;DHT22;25517;52.422;10.782;2022-10-31T08:05:25;15.40;99.90
39847;DHT22;25517;52.422;10.782;2022-10-31T08:07:50;15.60;99.90
39847;DHT22;25517;52.422;10.782;2022-10-31T08:10:16;15.60;99.90
39847;DHT22;25517;52.422;10.782;2022-10-31T08:12:41;15.60;99.90
39847;DHT22;25517;52.422;10.782;2022-10-31T08:15:07;15.60;99.90
39847;DHT22;25517;52.422;10.782;2022-10-31T08:17:35;15.70;99.90
39847;DHT22;25517;52.422;10.782;2022-10-31T08:20:01;15.70;99.90
39847;DHT22;25517;52.422;10.782;2022-10-31T08:22:26;15.80;99.90
39847;DHT22;25517;52.422;10.782;2022-10-31T08:24:52;15.80;99.90
39847;DHT22;25517;52.422;10.782;2022-10-31T08:27:17;15.80;99.90
39847;DHT22;25517;52.422;10.782;2022-10-31T08:29:43;15.80;99.90
39847;DHT22;25517;52.422;10.782;2022-10-31T08:32:08;15.90;99.90
39847;DHT22;25517;52.422;10.782;2022-10-31T08:34:34;15.90;99.90
39847;DHT22;25517;52.422;10.782;2022-10-31T08:36:59;15.80;99.90
39847;DHT22;25517;52.422;10.782;2022-10-31T08:39:24;15.80;99.90
39847;DHT22;25517;52.422;10.782;2022-10-31T08:41:50;15.80;99.90
39847;DHT22;25517;52.422;10.782;2022-10-31T08:44:16;15.80;99.90
39847;DHT22;25517;52.422;10.782;2022-10-31T08:46:41;15.80;99.90
39847;DHT22;25517;52.422;10.782;2022-10-31T08:49:07;15.70;99.90
39847;DHT22;25517;52.422;10.782;2022-10-31T08:51:32;15.70;99.90
39847;DHT22;25517;52.422;10.782;2022-10-31T08:53:58;15.80;99.90
39847;DHT22;25517;52.422;10.782;2022-10-31T08:56:23;15.80;99.90
39847;DHT22;25517;52.422;10.782;2022-10-31T08:58:49;15.90;99.90
39847;DHT22;25517;52.422;10.782;2022-10-31T09:01:14;16.00;99.90
39847;DHT22;25517;52.422;10.782;2022-10-31T09:03:40;16.00;99.90
39847;DHT22;25517;52.422;10.782;2022-10-31T09:06:05;16.30;99.90
39847;DHT22;25517;52.422;10.782;2022-10-31T09:08:34;16.40;99.90
39847;DHT22;25517;52.422;10.782;2022-10-31T09:11:00;16.40;99.90
39847;DHT22;25517;52.422;10.782;2022-10-31T09:13:26;16.30;99.90
39847;DHT22;25517;52.422;10.782;2022-10-31T09:15:51;16.30;99.90
39847;DHT22;25517;52.422;10.782;2022-10-31T09:18:19;16.20;99.90
39847;DHT22;25517;52.422;10.782;2022-10-31T09:20:46;16.20;99.90
39847;DHT22;25517;52.422;10.782;2022-10-31T09:23:14;16.40;99.90
39847;DHT22;25517;52.422;10.782;2022-10-31T09:25:40;16.60;99.90
39847;DHT22;25517;52.422;10.782;2022-10-31T09:28:08;16.90;99.90
39847;DHT22;25517;52.422;10.782;2022-10-31T09:30:35;17.20;99.90
39847;DHT22;25517;52.422;10.782;2022-10-31T09:33:03;17.50;99.90
39847;DHT22;25517;52.422;10.782;2022-10-31T09:35:29;18.00;99.90
39847;DHT22;25517;52.422;10.782;2022-10-31T09:38:02;18.70;99.90
39847;DHT22;25517;52.422;10.782;2022-10-31T09:40:38;19.10;99.90
39847;DHT22;25517;52.422;10.782;2022-10-31T09:43:25;19.80;99.90
39847;DHT22;25517;52.422;10.782;2022-10-31T09:48:43;20.40;99.90
39847;DHT22;25517;52.422;10.782;2022-10-31T09:51:33;21.00;99.90
39847;DHT22;25517;52.422;10.782;2022-10-31T09:54:18;21.60;99.90
39847;DHT22;25517;52.422;10.782;2022-10-31T09:56:44;22.20;99.90
39847;DHT22;25517;52.422;10.782;2022-10-31T09:59:35;23.00;99.90
39847;DHT22;25517;52.422;10.782;2022-10-31T10:02:31;23.50;99.00
39847;DHT22;25517;52.422;10.782;2022-10-31T10:05:00;24.00;98.00
39847;DHT22;25517;52.422;10.782;2022-10-31T10:07:49;24.70;96.50
39847;DHT22;25517;52.422;10.782;2022-10-31T10:10:48;25.10;95.50
39847;DHT22;25517;52.422;10.782;2022-10-31T10:13:36;25.60;94.20
39847;DHT22;25517;52.422;10.782;2022-10-31T10:35:46;26.10;90.60
39847;DHT22;25517;52.422;10.782;2022-10-31T10:38:23;26.20;89.70
39847;DHT22;25517;52.422;10.782;2022-10-31T10:40:52;26.30;90.50
39847;DHT22;25517;52.422;10.782;2022-10-31T10:43:26;26.40;88.80
39847;DHT22;25517;52.422;10.782;2022-10-31T10:57:50;26.20;88.30
39847;DHT22;25517;52.422;10.782;2022-10-31T11:02:50;26.70;86.70
39847;DHT22;25517;52.422;10.782;2022-10-31T11:08:06;27.00;85.20
39847;DHT22;25517;52.422;10.782;2022-10-31T11:10:32;26.70;84.70
39847;DHT22;25517;52.422;10.782;2022-10-31T11:13:16;26.80;84.20
39847;DHT22;25517;52.422;10.782;2022-10-31T11:16:04;27.10;83.20
39847;DHT22;25517;52.422;10.782;2022-10-31T11:18:34;27.60;81.80
39847;DHT22;25517;52.422;10.782;2022-10-31T11:21:03;27.00;83.30
39847;DHT22;25517;52.422;10.782;2022-10-31T11:23:30;26.90;82.90
39847;DHT22;25517;52.422;10.782;2022-10-31T11:26:01;26.70;84.50
39847;DHT22;25517;52.422;10.782;2022-10-31T11:28:28;26.80;82.70
39847;DHT22;25517;52.422;10.782;2022-10-31T11:31:12;26.80;83.00
39847;DHT22;25517;52.422;10.782;2022-10-31T11:33:48;26.70;83.40
39847;DHT22;25517;52.422;10.782;2022-10-31T11:36:21;26.50;83.10
39847;DHT22;25517;52.422;10.782;2022-10-31T11:38:47;26.60;84.00
39847;DHT22;25517;52.422;10.782;2022-10-31T11:41:18;26.60;82.90
39847;DHT22;25517;52.422;10.782;2022-10-31T11:43:57;26.90;81.90
39847;DHT22;25517;52.422;10.782;2022-10-31T11:46:38;26.60;81.70
39847;DHT22;25517;52.422;10.782;2022-10-31T11:49:05;27.00;81.10
39847;DHT22;25517;52.422;10.782;2022-10-31T11:51:33;26.60;82.30
39847;DHT22;25517;52.422;10.782;2022-10-31T11:54:01;26.30;82.30
39847;DHT22;25517;52.422;10.782;2022-10-31T11:56:37;26.20;82.50
39847;DHT22;25517;52.422;10.782;2022-10-31T11:59:05;26.00;83.60
39847;DHT22;25517;52.422;10.782;2022-10-31T12:01:32;25.60;84.10
39847;DHT22;25517;52.422;10.782;2022-10-31T12:04:06;25.80;83.80
39847;DHT22;25517;52.422;10.782;2022-10-31T12:06:37;25.70;85.20
39847;DHT22;25517;52.422;10.782;2022-10-31T12:09:22;25.40;85.50
39847;DHT22;25517;52.422;10.782;2022-10-31T12:17:33;24.50;87.40
39847;DHT22;25517;52.422;10.782;2022-10-31T12:20:32;24.20;89.80
39847;DHT22;25517;52.422;10.782;2022-10-31T12:23:03;23.80;87.80
39847;DHT22;25517;52.422;10.782;2022-10-31T12:25:52;23.50;90.50
39847;DHT22;25517;52.422;10.782;2022-10-31T12:35:01;22.70;91.50
39847;DHT22;25517;52.422;10.782;2022-10-31T12:37:32;22.40;93.40
39847;DHT22;25517;52.422;10.782;2022-10-31T12:40:11;22.40;93.40
39847;DHT22;25517;52.422;10.782;2022-10-31T12:42:49;22.30;93.60
39847;DHT22;25517;52.422;10.782;2022-10-31T12:45:51;22.10;93.70
39847;DHT22;25517;52.422;10.782;2022-10-31T12:50:56;21.60;93.50
39847;DHT22;25517;52.422;10.782;2022-10-31T12:53:45;21.50;94.10
39847;DHT22;25517;52.422;10.782;2022-10-31T12:59:40;21.20;95.70
39847;DHT22;25517;52.422;10.782;2022-10-31T13:02:44;21.00;96.00
39847;DHT22;25517;52.422;10.782;2022-10-31T13:05:26;21.00;96.00
39847;DHT22;25517;52.422;10.782;2022-10-31T13:08:17;20.80;96.60
39847;DHT22;25517;52.422;10.782;2022-10-31T13:10:46;20.60;97.20
39847;DHT22;25517;52.422;10.782;2022-10-31T13:13:18;20.40;97.90
39847;DHT22;25517;52.422;10.782;2022-10-31T13:18:38;20.30;98.80
39847;DHT22;25517;52.422;10.782;2022-10-31T13:21:09;20.10;99.30
39847;DHT22;25517;52.422;10.782;2022-10-31T13:23:36;20.00;99.90
39847;DHT22;25517;52.422;10.782;2022-10-31T13:29:35;19.90;99.90
39847;DHT22;25517;52.422;10.782;2022-10-31T13:32:06;19.80;99.90
39847;DHT22;25517;52.422;10.782;2022-10-31T13:34:48;19.80;99.90
39847;DHT22;25517;52.422;10.782;2022-10-31T13:37:34;19.60;99.90
39847;DHT22;25517;52.422;10.782;2022-10-31T13:40:32;19.40;99.90
39847;DHT22;25517;52.422;10.782;2022-10-31T13:43:13;19.40;99.90
39847;DHT22;25517;52.422;10.782;2022-10-31T13:45:50;19.40;99.90
39847;DHT22;25517;52.422;10.782;2022-10-31T13:50:43;19.40;99.90
39847;DHT22;25517;52.422;10.782;2022-10-31T13:55:46;19.40;99.90
39847;DHT22;25517;52.422;10.782;2022-10-31T13:58:37;19.40;99.90
39847;DHT22;25517;52.422;10.782;2022-10-31T14:01:18;19.40;99.90
39847;DHT22;25517;52.422;10.782;2022-10-31T14:03:47;19.40;99.90
39847;DHT22;25517;52.422;10.782;2022-10-31T14:06:13;19.40;99.90
39847;DHT22;25517;52.422;10.782;2022-10-31T14:08:49;19.40;99.90
39847;DHT22;25517;52.422;10.782;2022-10-31T14:11:25;19.30;99.90
39847;DHT22;25517;52.422;10.782;2022-10-31T14:13:53;19.10;99.90
39847;DHT22;25517;52.422;10.782;2022-10-31T14:16:24;19.00;99.90
39847;DHT22;25517;52.422;10.782;2022-10-31T14:19:04;18.90;99.90
39847;DHT22;25517;52.422;10.782;2022-10-31T14:22:18;18.80;99.90
39847;DHT22;25517;52.422;10.782;2022-10-31T14:24:32;18.70;99.90
39847;DHT22;25517;52.422;10.782;2022-10-31T14:29:46;18.40;99.90
39847;DHT22;25517;52.422;10.782;2022-10-31T14:34:50;18.20;99.90
39847;DHT22;25517;52.422;10.782;2022-10-31T14:37:45;18.20;99.90
39847;DHT22;25517;52.422;10.782;2022-10-31T14:51:51;17.60;99.90
39847;DHT22;25517;52.422;10.782;2022-10-31T14:54:27;17.40;99.90
39847;DHT22;25517;52.422;10.782;2022-10-31T14:57:03;17.30;99.90
39847;DHT22;25517;52.422;10.782;2022-10-31T14:59:33;17.20;99.90
39847;DHT22;25517;52.422;10.782;2022-10-31T15:02:08;17.10;99.90
39847;DHT22;25517;52.422;10.782;2022-10-31T15:04:36;17.00;99.90
39847;DHT22;25517;52.422;10.782;2022-10-31T15:07:09;17.00;99.90
39847;DHT22;25517;52.422;10.782;2022-10-31T15:09:37;17.00;99.90
39847;DHT22;25517;52.422;10.782;2022-10-31T15:12:31;16.90;99.90
39847;DHT22;25517;52.422;10.782;2022-10-31T15:15:10;16.70;99.90
39847;DHT22;25517;52.422;10.782;2022-10-31T15:17:35;16.70;99.90
39847;DHT22;25517;52.422;10.782;2022-10-31T15:20:01;16.60;99.90
39847;DHT22;25517;52.422;10.782;2022-10-31T15:22:29;16.60;99.90
39847;DHT22;25517;52.422;10.782;2022-10-31T15:24:55;16.50;99.90
39847;DHT22;25517;52.422;10.782;2022-10-31T15:27:22;16.50;99.90
39847;DHT22;25517;52.422;10.782;2022-10-31T15:29:54;16.40;99.90
39847;DHT22;25517;52.422;10.782;2022-10-31T15:32:27;16.30;99.90
39847;DHT22;25517;52.422;10.782;2022-10-31T15:34:54;16.20;99.90
39847;DHT22;25517;52.422;10.782;2022-10-31T15:37:28;16.20;99.90
39847;DHT22;25517;52.422;10.782;2022-10-31T15:39:54;16.10;99.90
39847;DHT22;25517;52.422;10.782;2022-10-31T15:42:29;16.10;99.90
39847;DHT22;25517;52.422;10.782;2022-10-31T15:45:15;16.00;99.90
39847;DHT22;25517;52.422;10.782;2022-10-31T15:47:48;16.00;99.90
39847;DHT22;25517;52.422;10.782;2022-10-31T15:50:36;16.00;99.90
39847;DHT22;25517;52.422;10.782;2022-10-31T15:53:03;15.90;99.90
39847;DHT22;25517;52.422;10.782;2022-10-31T15:55:46;15.90;99.90
39847;DHT22;25517;52.422;10.782;2022-10-31T15:58:14;15.80;99.90
39847;DHT22;25517;52.422;10.782;2022-10-31T16:00:41;15.80;99.90
39847;DHT22;25517;52.422;10.782;2022-10-31T16:05:46;15.70;99.90
39847;DHT22;25517;52.422;10.782;2022-10-31T16:13:32;15.60;99.90
39847;DHT22;25517;52.422;10.782;2022-10-31T16:16:01;15.50;99.90
39847;DHT22;25517;52.422;10.782;2022-10-31T16:18:28;15.50;99.90
39847;DHT22;25517;52.422;10.782;2022-10-31T16:20:56;15.40;99.90
39847;DHT22;25517;52.422;10.782;2022-10-31T16:23:24;15.50;99.90
39847;DHT22;25517;52.422;10.782;2022-10-31T16:25:51;15.40;99.90
39847;DHT22;25517;52.422;10.782;2022-10-31T16:28:19;15.30;99.90
39847;DHT22;25517;52.422;10.782;2022-10-31T16:30:48;15.30;99.90
39847;DHT22;25517;52.422;10.782;2022-10-31T16:33:33;15.30;99.90
39847;DHT22;25517;52.422;10.782;2022-10-31T16:36:28;15.30;99.90
39847;DHT22;25517;52.422;10.782;2022-10-31T16:38:58;15.30;99.90
39847;DHT22;25517;52.422;10.782;2022-10-31T16:41:25;15.30;99.90
39847;DHT22;25517;52.422;10.782;2022-10-31T16:43:51;15.30;99.90
39847;DHT22;25517;52.422;10.782;2022-10-31T16:46:25;15.30;99.90
39847;DHT22;25517;52.422;10.782;2022-10-31T16:48:51;15.30;99.90
39847;DHT22;25517;52.422;10.782;2022-10-31T16:51:16;15.30;99.90
39847;DHT22;25517;52.422;10.782;2022-10-31T16:53:42;15.30;99.90
39847;DHT22;25517;52.422;10.782;2022-10-31T16:56:18;15.30;99.90
39847;DHT22;25517;52.422;10.782;2022-10-31T16:58:45;15.30;99.90
39847;DHT22;25517;52.422;10.782;2022-10-31T17:01:12;15.30;99.90
39847;DHT22;25517;52.422;10.782;2022-10-31T17:03:38;15.30;99.90
39847;DHT22;25517;52.422;10.782;2022-10-31T17:06:03;15.30;99.90
39847;DHT22;25517;52.422;10.782;2022-10-31T17:08:29;15.30;99.90
39847;DHT22;25517;52.422;10.782;2022-10-31T17:10:56;15.30;99.90
39847;DHT22;25517;52.422;10.782;2022-10-31T17:13:25;15.30;99.90
39847;DHT22;25517;52.422;10.782;2022-10-31T17:15:54;15.30;99.90
39847;DHT22;25517;52.422;10.782;2022-10-31T17:18:20;15.30;99.90
39847;DHT22;25517;52.422;10.782;2022-10-31T17:20:46;15.20;99.90
39847;DHT22;25517;52.422;10.782;2022-10-31T17:23:14;15.30;99.90
39847;DHT22;25517;52.422;10.782;2022-10-31T17:25:41;15.30;99.90
39847;DHT22;25517;52.422;10.782;2022-10-31T17:28:13;15.30;99.90
39847;DHT22;25517;52.422;10.782;2022-10-31T17:30:39;15.30;99.90
39847;DHT22;25517;52.422;10.782;2022-10-31T17:33:05;15.30;99.90
39847;DHT22;25517;52.422;10.782;2022-10-31T17:35:30;15.20;99.90
39847;DHT22;25517;52.422;10.782;2022-10-31T17:37:56;15.30;99.90